sensor_id;sensor_type;location;lat;lon;timestamp;P1;durP1;ratioP1;P2;durP2;ratioP2
71629;SDS011;59479;51.902;8.212;2023-04-24T00:00:19;2.80;;;1.00;;
71629;SDS011;59479;51.902;8.212;2023-04-24T00:02:45;2.80;;;1.20;;
71629;SDS011;59479;51.902;8.212;2023-04-24T00:05:14;3.00;;;1.00;;
71629;SDS011;59479;51.902;8.212;2023-04-24T00:07:40;2.80;;;1.00;;
71629;SDS011;59479;51.902;8.212;2023-04-24T00:10:06;3.10;;;1.20;;
71629;SDS011;59479;51.902;8.212;2023-04-24T00:12:32;2.60;;;0.88;;
71629;SDS011;59479;51.902;8.212;2023-04-24T00:14:57;2.57;;;1.20;;
71629;SDS011;59479;51.902;8.212;2023-04-24T00:17:23;2.47;;;1.00;;
71629;SDS011;59479;51.902;8.212;2023-04-24T00:19:48;2.63;;;1.07;;
71629;SDS011;59479;51.902;8.212;2023-04-24T00:22:16;2.60;;;1.15;;
71629;SDS011;59479;51.902;8.212;2023-04-24T00:24:42;3.13;;;1.08;;
71629;SDS011;59479;51.902;8.212;2023-04-24T00:27:07;4.43;;;1.33;;
71629;SDS011;59479;51.902;8.212;2023-04-24T00:29:32;3.33;;;1.20;;
71629;SDS011;59479;51.902;8.212;2023-04-24T00:31:58;2.55;;;1.17;;
71629;SDS011;59479;51.902;8.212;2023-04-24T00:34:23;2.80;;;1.02;;
71629;SDS011;59479;51.902;8.212;2023-04-24T00:36:49;2.80;;;1.30;;
71629;SDS011;59479;51.902;8.212;2023-04-24T00:39:17;3.17;;;1.15;;
71629;SDS011;59479;51.902;8.212;2023-04-24T00:41:43;2.30;;;0.90;;
71629;SDS011;59479;51.902;8.212;2023-04-24T00:44:10;3.03;;;1.08;;
71629;SDS011;59479;51.902;8.212;2023-04-24T00:46:36;2.50;;;1.30;;
71629;SDS011;59479;51.902;8.212;2023-04-24T00:49:01;2.77;;;1.10;;
71629;SDS011;59479;51.902;8.212;2023-04-24T00:51:27;2.80;;;1.03;;
71629;SDS011;59479;51.902;8.212;2023-04-24T00:53:52;2.70;;;1.20;;
71629;SDS011;59479;51.902;8.212;2023-04-24T00:56:18;2.60;;;1.10;;
71629;SDS011;59479;51.902;8.212;2023-04-24T00:58:44;2.63;;;1.00;;
71629;SDS011;59479;51.902;8.212;2023-04-24T01:01:09;2.75;;;1.15;;
71629;SDS011;59479;51.902;8.212;2023-04-24T01:03:36;3.05;;;1.23;;
71629;SDS011;59479;51.902;8.212;2023-04-24T01:06:03;4.40;;;1.50;;
71629;SDS011;59479;51.902;8.212;2023-04-24T01:08:30;3.17;;;1.00;;
71629;SDS011;59479;51.902;8.212;2023-04-24T01:10:56;2.90;;;1.00;;
71629;SDS011;59479;51.902;8.212;2023-04-24T01:13:22;2.80;;;1.30;;
71629;SDS011;59479;51.902;8.212;2023-04-24T01:15:47;4.25;;;1.10;;
71629;SDS011;59479;51.902;8.212;2023-04-24T01:18:13;2.60;;;0.90;;
71629;SDS011;59479;51.902;8.212;2023-04-24T01:20:39;2.50;;;0.90;;
71629;SDS011;59479;51.902;8.212;2023-04-24T01:23:06;2.70;;;0.93;;
71629;SDS011;59479;51.902;8.212;2023-04-24T01:25:32;3.53;;;1.10;;
71629;SDS011;59479;51.902;8.212;2023-04-24T01:27:58;3.17;;;1.23;;
71629;SDS011;59479;51.902;8.212;2023-04-24T01:30:25;2.87;;;1.20;;
71629;SDS011;59479;51.902;8.212;2023-04-24T01:32:51;3.80;;;1.10;;
71629;SDS011;59479;51.902;8.212;2023-04-24T01:35:17;2.90;;;1.40;;
71629;SDS011;59479;51.902;8.212;2023-04-24T01:37:42;2.60;;;1.20;;
71629;SDS011;59479;51.902;8.212;2023-04-24T01:40:08;2.70;;;1.30;;
71629;SDS011;59479;51.902;8.212;2023-04-24T01:42:34;3.90;;;1.00;;
71629;SDS011;59479;51.902;8.212;2023-04-24T01:45:00;2.67;;;1.40;;
71629;SDS011;59479;51.902;8.212;2023-04-24T01:47:28;2.60;;;1.10;;
71629;SDS011;59479;51.902;8.212;2023-04-24T01:49:55;2.50;;;1.10;;
71629;SDS011;59479;51.902;8.212;2023-04-24T01:52:20;3.07;;;1.23;;
71629;SDS011;59479;51.902;8.212;2023-04-24T01:54:46;3.67;;;1.40;;
71629;SDS011;59479;51.902;8.212;2023-04-24T01:57:11;4.07;;;1.07;;
71629;SDS011;59479;51.902;8.212;2023-04-24T01:59:37;4.70;;;1.53;;
71629;SDS011;59479;51.902;8.212;2023-04-24T02:02:02;3.10;;;1.40;;
71629;SDS011;59479;51.902;8.212;2023-04-24T02:04:28;3.45;;;1.50;;
71629;SDS011;59479;51.902;8.212;2023-04-24T02:06:53;3.23;;;1.50;;
71629;SDS011;59479;51.902;8.212;2023-04-24T02:09:19;2.87;;;1.23;;
71629;SDS011;59479;51.902;8.212;2023-04-24T02:11:44;4.22;;;1.40;;
71629;SDS011;59479;51.902;8.212;2023-04-24T02:14:10;4.03;;;1.47;;
71629;SDS011;59479;51.902;8.212;2023-04-24T02:16:35;3.13;;;1.70;;
71629;SDS011;59479;51.902;8.212;2023-04-24T02:19:01;3.17;;;1.53;;
71629;SDS011;59479;51.902;8.212;2023-04-24T02:21:27;3.20;;;1.55;;
71629;SDS011;59479;51.902;8.212;2023-04-24T02:23:53;3.30;;;1.60;;
71629;SDS011;59479;51.902;8.212;2023-04-24T02:26:18;3.30;;;1.90;;
71629;SDS011;59479;51.902;8.212;2023-04-24T02:28:44;3.43;;;1.57;;
71629;SDS011;59479;51.902;8.212;2023-04-24T02:31:09;4.83;;;1.57;;
71629;SDS011;59479;51.902;8.212;2023-04-24T02:33:34;3.23;;;1.63;;
71629;SDS011;59479;51.902;8.212;2023-04-24T02:36:00;3.25;;;1.40;;
71629;SDS011;59479;51.902;8.212;2023-04-24T02:38:26;3.00;;;1.23;;
71629;SDS011;59479;51.902;8.212;2023-04-24T02:40:52;4.40;;;1.50;;
71629;SDS011;59479;51.902;8.212;2023-04-24T02:43:17;3.20;;;1.57;;
71629;SDS011;59479;51.902;8.212;2023-04-24T02:45:42;4.00;;;1.60;;
71629;SDS011;59479;51.902;8.212;2023-04-24T02:48:08;3.13;;;1.43;;
71629;SDS011;59479;51.902;8.212;2023-04-24T02:50:33;3.23;;;1.80;;
71629;SDS011;59479;51.902;8.212;2023-04-24T02:52:58;3.17;;;1.60;;
71629;SDS011;59479;51.902;8.212;2023-04-24T02:55:24;2.70;;;1.27;;
71629;SDS011;59479;51.902;8.212;2023-04-24T02:57:50;3.10;;;1.30;;
71629;SDS011;59479;51.902;8.212;2023-04-24T03:00:15;3.57;;;1.60;;
71629;SDS011;59479;51.902;8.212;2023-04-24T03:02:41;3.22;;;1.20;;
71629;SDS011;59479;51.902;8.212;2023-04-24T03:05:06;3.20;;;1.70;;
71629;SDS011;59479;51.902;8.212;2023-04-24T03:07:32;3.08;;;1.70;;
71629;SDS011;59479;51.902;8.212;2023-04-24T03:09:58;3.45;;;1.70;;
71629;SDS011;59479;51.902;8.212;2023-04-24T03:12:24;3.10;;;1.48;;
71629;SDS011;59479;51.902;8.212;2023-04-24T03:14:50;4.97;;;1.88;;
71629;SDS011;59479;51.902;8.212;2023-04-24T03:17:15;3.63;;;1.63;;
71629;SDS011;59479;51.902;8.212;2023-04-24T03:19:41;3.60;;;1.80;;
71629;SDS011;59479;51.902;8.212;2023-04-24T03:22:06;3.83;;;1.70;;
71629;SDS011;59479;51.902;8.212;2023-04-24T03:24:31;3.77;;;1.80;;
71629;SDS011;59479;51.902;8.212;2023-04-24T03:26:57;3.50;;;1.93;;
71629;SDS011;59479;51.902;8.212;2023-04-24T03:29:22;3.67;;;1.80;;
71629;SDS011;59479;51.902;8.212;2023-04-24T03:31:48;3.83;;;1.73;;
71629;SDS011;59479;51.902;8.212;2023-04-24T03:34:13;5.30;;;1.90;;
71629;SDS011;59479;51.902;8.212;2023-04-24T03:36:39;3.20;;;1.47;;
71629;SDS011;59479;51.902;8.212;2023-04-24T03:39:04;4.13;;;1.90;;
71629;SDS011;59479;51.902;8.212;2023-04-24T03:41:30;3.13;;;1.50;;
71629;SDS011;59479;51.902;8.212;2023-04-24T03:43:55;3.28;;;1.77;;
71629;SDS011;59479;51.902;8.212;2023-04-24T03:46:21;4.57;;;1.90;;
71629;SDS011;59479;51.902;8.212;2023-04-24T03:48:46;4.50;;;1.47;;
71629;SDS011;59479;51.902;8.212;2023-04-24T03:51:11;4.57;;;2.03;;
71629;SDS011;59479;51.902;8.212;2023-04-24T03:53:37;3.37;;;1.80;;
71629;SDS011;59479;51.902;8.212;2023-04-24T03:56:02;4.20;;;1.70;;
71629;SDS011;59479;51.902;8.212;2023-04-24T03:58:28;4.13;;;2.30;;
71629;SDS011;59479;51.902;8.212;2023-04-24T04:00:53;3.37;;;1.63;;
71629;SDS011;59479;51.902;8.212;2023-04-24T04:03:18;4.03;;;1.80;;
71629;SDS011;59479;51.902;8.212;2023-04-24T04:05:44;3.60;;;1.77;;
71629;SDS011;59479;51.902;8.212;2023-04-24T04:08:10;3.60;;;1.53;;
71629;SDS011;59479;51.902;8.212;2023-04-24T04:10:35;3.83;;;1.90;;
71629;SDS011;59479;51.902;8.212;2023-04-24T04:13:00;3.83;;;1.87;;
71629;SDS011;59479;51.902;8.212;2023-04-24T04:15:26;6.00;;;2.10;;
71629;SDS011;59479;51.902;8.212;2023-04-24T04:17:51;5.17;;;2.73;;
71629;SDS011;59479;51.902;8.212;2023-04-24T04:20:16;6.30;;;2.60;;
71629;SDS011;59479;51.902;8.212;2023-04-24T04:22:42;6.37;;;2.93;;
71629;SDS011;59479;51.902;8.212;2023-04-24T04:25:07;5.40;;;3.43;;
71629;SDS011;59479;51.902;8.212;2023-04-24T04:27:33;8.98;;;4.07;;
71629;SDS011;59479;51.902;8.212;2023-04-24T04:29:59;7.38;;;3.67;;
71629;SDS011;59479;51.902;8.212;2023-04-24T04:32:31;8.70;;;4.15;;
71629;SDS011;59479;51.902;8.212;2023-04-24T04:34:58;8.15;;;4.90;;
71629;SDS011;59479;51.902;8.212;2023-04-24T04:37:27;7.10;;;4.03;;
71629;SDS011;59479;51.902;8.212;2023-04-24T04:39:56;7.45;;;4.43;;
71629;SDS011;59479;51.902;8.212;2023-04-24T04:42:23;7.43;;;4.60;;
71629;SDS011;59479;51.902;8.212;2023-04-24T04:44:49;9.43;;;4.90;;
71629;SDS011;59479;51.902;8.212;2023-04-24T04:47:15;8.07;;;4.85;;
71629;SDS011;59479;51.902;8.212;2023-04-24T04:49:42;9.52;;;5.40;;
71629;SDS011;59479;51.902;8.212;2023-04-24T04:52:08;7.80;;;4.65;;
71629;SDS011;59479;51.902;8.212;2023-04-24T04:54:34;9.25;;;4.82;;
71629;SDS011;59479;51.902;8.212;2023-04-24T04:56:59;9.70;;;5.43;;
71629;SDS011;59479;51.902;8.212;2023-04-24T04:59:25;9.00;;;4.97;;
71629;SDS011;59479;51.902;8.212;2023-04-24T05:01:51;8.10;;;4.40;;
71629;SDS011;59479;51.902;8.212;2023-04-24T05:04:16;8.87;;;5.07;;
71629;SDS011;59479;51.902;8.212;2023-04-24T05:06:41;8.43;;;4.93;;
71629;SDS011;59479;51.902;8.212;2023-04-24T05:09:07;9.20;;;5.10;;
71629;SDS011;59479;51.902;8.212;2023-04-24T05:11:32;9.50;;;5.00;;
71629;SDS011;59479;51.902;8.212;2023-04-24T05:13:57;10.47;;;4.93;;
71629;SDS011;59479;51.902;8.212;2023-04-24T05:16:23;11.83;;;6.00;;
71629;SDS011;59479;51.902;8.212;2023-04-24T05:18:48;10.50;;;5.47;;
71629;SDS011;59479;51.902;8.212;2023-04-24T05:21:13;9.83;;;5.60;;
71629;SDS011;59479;51.902;8.212;2023-04-24T05:23:39;9.20;;;5.23;;
71629;SDS011;59479;51.902;8.212;2023-04-24T05:26:04;11.00;;;5.60;;
71629;SDS011;59479;51.902;8.212;2023-04-24T05:28:30;9.48;;;5.32;;
71629;SDS011;59479;51.902;8.212;2023-04-24T05:30:55;11.03;;;5.27;;
71629;SDS011;59479;51.902;8.212;2023-04-24T05:33:21;10.20;;;5.80;;
71629;SDS011;59479;51.902;8.212;2023-04-24T05:35:47;11.75;;;5.75;;
71629;SDS011;59479;51.902;8.212;2023-04-24T05:38:13;13.67;;;6.67;;
71629;SDS011;59479;51.902;8.212;2023-04-24T05:40:38;10.48;;;6.22;;
71629;SDS011;59479;51.902;8.212;2023-04-24T05:43:04;11.03;;;5.90;;
71629;SDS011;59479;51.902;8.212;2023-04-24T05:45:30;13.00;;;5.97;;
71629;SDS011;59479;51.902;8.212;2023-04-24T05:47:55;10.80;;;6.30;;
71629;SDS011;59479;51.902;8.212;2023-04-24T05:50:20;10.37;;;6.00;;
71629;SDS011;59479;51.902;8.212;2023-04-24T05:52:46;9.93;;;6.00;;
71629;SDS011;59479;51.902;8.212;2023-04-24T05:55:11;11.27;;;6.20;;
71629;SDS011;59479;51.902;8.212;2023-04-24T05:57:36;11.27;;;6.43;;
71629;SDS011;59479;51.902;8.212;2023-04-24T06:00:02;12.73;;;6.88;;
71629;SDS011;59479;51.902;8.212;2023-04-24T06:02:29;9.53;;;5.63;;
71629;SDS011;59479;51.902;8.212;2023-04-24T06:04:57;12.20;;;6.10;;
71629;SDS011;59479;51.902;8.212;2023-04-24T06:07:24;10.77;;;6.15;;
71629;SDS011;59479;51.902;8.212;2023-04-24T06:09:51;11.00;;;5.97;;
71629;SDS011;59479;51.902;8.212;2023-04-24T06:12:16;11.77;;;6.40;;
71629;SDS011;59479;51.902;8.212;2023-04-24T06:14:41;11.83;;;6.90;;
71629;SDS011;59479;51.902;8.212;2023-04-24T06:17:07;13.53;;;6.33;;
71629;SDS011;59479;51.902;8.212;2023-04-24T06:19:32;11.20;;;5.37;;
71629;SDS011;59479;51.902;8.212;2023-04-24T06:21:57;11.50;;;6.97;;
71629;SDS011;59479;51.902;8.212;2023-04-24T06:24:26;11.43;;;6.40;;
71629;SDS011;59479;51.902;8.212;2023-04-24T06:26:52;14.60;;;6.93;;
71629;SDS011;59479;51.902;8.212;2023-04-24T06:29:17;12.13;;;6.43;;
71629;SDS011;59479;51.902;8.212;2023-04-24T06:31:43;13.37;;;6.40;;
71629;SDS011;59479;51.902;8.212;2023-04-24T06:34:08;12.17;;;6.33;;
71629;SDS011;59479;51.902;8.212;2023-04-24T06:36:33;14.07;;;6.25;;
71629;SDS011;59479;51.902;8.212;2023-04-24T06:39:00;9.77;;;5.80;;
71629;SDS011;59479;51.902;8.212;2023-04-24T06:41:26;9.93;;;5.85;;
71629;SDS011;59479;51.902;8.212;2023-04-24T06:43:52;10.77;;;6.30;;
71629;SDS011;59479;51.902;8.212;2023-04-24T06:46:17;11.57;;;6.13;;
71629;SDS011;59479;51.902;8.212;2023-04-24T06:48:43;13.57;;;6.50;;
71629;SDS011;59479;51.902;8.212;2023-04-24T06:51:08;10.73;;;6.73;;
71629;SDS011;59479;51.902;8.212;2023-04-24T06:53:34;13.75;;;7.15;;
71629;SDS011;59479;51.902;8.212;2023-04-24T06:56:00;12.67;;;6.70;;
71629;SDS011;59479;51.902;8.212;2023-04-24T06:58:25;13.15;;;6.20;;
71629;SDS011;59479;51.902;8.212;2023-04-24T07:00:51;10.93;;;6.43;;
71629;SDS011;59479;51.902;8.212;2023-04-24T07:03:16;10.53;;;5.40;;
71629;SDS011;59479;51.902;8.212;2023-04-24T07:05:41;13.73;;;6.00;;
71629;SDS011;59479;51.902;8.212;2023-04-24T07:08:07;10.77;;;5.60;;
71629;SDS011;59479;51.902;8.212;2023-04-24T07:10:33;8.63;;;5.17;;
71629;SDS011;59479;51.902;8.212;2023-04-24T07:13:00;10.88;;;5.82;;
71629;SDS011;59479;51.902;8.212;2023-04-24T07:15:26;8.68;;;4.90;;
71629;SDS011;59479;51.902;8.212;2023-04-24T07:17:52;9.87;;;4.70;;
71629;SDS011;59479;51.902;8.212;2023-04-24T07:20:17;7.77;;;4.80;;
71629;SDS011;59479;51.902;8.212;2023-04-24T07:22:43;8.93;;;4.55;;
71629;SDS011;59479;51.902;8.212;2023-04-24T07:25:08;8.63;;;4.47;;
71629;SDS011;59479;51.902;8.212;2023-04-24T07:27:34;7.95;;;3.75;;
71629;SDS011;59479;51.902;8.212;2023-04-24T07:30:01;7.63;;;4.15;;
71629;SDS011;59479;51.902;8.212;2023-04-24T07:32:28;6.35;;;4.18;;
71629;SDS011;59479;51.902;8.212;2023-04-24T07:34:54;6.00;;;3.87;;
71629;SDS011;59479;51.902;8.212;2023-04-24T07:37:20;7.55;;;3.97;;
71629;SDS011;59479;51.902;8.212;2023-04-24T07:39:45;7.73;;;4.27;;
71629;SDS011;59479;51.902;8.212;2023-04-24T07:42:10;6.60;;;3.90;;
71629;SDS011;59479;51.902;8.212;2023-04-24T07:44:36;9.00;;;4.00;;
71629;SDS011;59479;51.902;8.212;2023-04-24T07:47:01;7.30;;;3.60;;
71629;SDS011;59479;51.902;8.212;2023-04-24T07:49:27;6.93;;;4.10;;
71629;SDS011;59479;51.902;8.212;2023-04-24T07:51:52;6.10;;;3.27;;
71629;SDS011;59479;51.902;8.212;2023-04-24T07:54:18;5.72;;;3.63;;
71629;SDS011;59479;51.902;8.212;2023-04-24T07:56:43;7.77;;;4.00;;
71629;SDS011;59479;51.902;8.212;2023-04-24T07:59:09;7.07;;;3.77;;
71629;SDS011;59479;51.902;8.212;2023-04-24T08:01:35;7.30;;;3.97;;
71629;SDS011;59479;51.902;8.212;2023-04-24T08:04:01;6.93;;;3.93;;
71629;SDS011;59479;51.902;8.212;2023-04-24T08:06:26;5.70;;;3.83;;
71629;SDS011;59479;51.902;8.212;2023-04-24T08:08:58;7.82;;;3.92;;
71629;SDS011;59479;51.902;8.212;2023-04-24T08:11:25;6.95;;;3.60;;
71629;SDS011;59479;51.902;8.212;2023-04-24T08:13:50;6.53;;;3.70;;
71629;SDS011;59479;51.902;8.212;2023-04-24T08:16:16;6.50;;;3.38;;
71629;SDS011;59479;51.902;8.212;2023-04-24T08:18:41;5.60;;;3.43;;
71629;SDS011;59479;51.902;8.212;2023-04-24T08:21:06;6.83;;;3.47;;
71629;SDS011;59479;51.902;8.212;2023-04-24T08:23:32;6.97;;;2.67;;
71629;SDS011;59479;51.902;8.212;2023-04-24T08:25:57;7.30;;;3.17;;
71629;SDS011;59479;51.902;8.212;2023-04-24T08:28:22;4.77;;;2.90;;
71629;SDS011;59479;51.902;8.212;2023-04-24T08:30:48;4.57;;;2.63;;
71629;SDS011;59479;51.902;8.212;2023-04-24T08:33:17;5.43;;;2.50;;
71629;SDS011;59479;51.902;8.212;2023-04-24T08:35:43;4.45;;;2.50;;
71629;SDS011;59479;51.902;8.212;2023-04-24T08:38:08;3.87;;;2.37;;
71629;SDS011;59479;51.902;8.212;2023-04-24T08:40:33;4.57;;;2.63;;
71629;SDS011;59479;51.902;8.212;2023-04-24T08:42:59;4.00;;;2.13;;
71629;SDS011;59479;51.902;8.212;2023-04-24T08:45:25;5.47;;;2.67;;
71629;SDS011;59479;51.902;8.212;2023-04-24T08:47:52;4.30;;;2.38;;
71629;SDS011;59479;51.902;8.212;2023-04-24T08:50:18;4.70;;;2.10;;
71629;SDS011;59479;51.902;8.212;2023-04-24T08:52:44;5.13;;;2.33;;
71629;SDS011;59479;51.902;8.212;2023-04-24T08:55:09;4.47;;;2.53;;
71629;SDS011;59479;51.902;8.212;2023-04-24T08:57:35;5.90;;;2.43;;
71629;SDS011;59479;51.902;8.212;2023-04-24T09:00:03;3.92;;;2.05;;
71629;SDS011;59479;51.902;8.212;2023-04-24T09:02:29;5.53;;;2.05;;
71629;SDS011;59479;51.902;8.212;2023-04-24T09:04:56;4.53;;;2.25;;
71629;SDS011;59479;51.902;8.212;2023-04-24T09:07:23;4.37;;;2.50;;
71629;SDS011;59479;51.902;8.212;2023-04-24T09:09:51;3.88;;;2.35;;
71629;SDS011;59479;51.902;8.212;2023-04-24T09:12:17;3.90;;;2.20;;
71629;SDS011;59479;51.902;8.212;2023-04-24T09:14:44;5.03;;;2.30;;
71629;SDS011;59479;51.902;8.212;2023-04-24T09:17:11;4.10;;;2.22;;
71629;SDS011;59479;51.902;8.212;2023-04-24T09:19:37;4.57;;;2.10;;
71629;SDS011;59479;51.902;8.212;2023-04-24T09:22:06;3.70;;;2.05;;
71629;SDS011;59479;51.902;8.212;2023-04-24T09:24:32;5.03;;;2.20;;
71629;SDS011;59479;51.902;8.212;2023-04-24T09:26:57;3.33;;;1.63;;
71629;SDS011;59479;51.902;8.212;2023-04-24T09:29:24;4.73;;;2.57;;
71629;SDS011;59479;51.902;8.212;2023-04-24T09:31:50;3.95;;;1.83;;
71629;SDS011;59479;51.902;8.212;2023-04-24T09:34:19;3.83;;;1.85;;
71629;SDS011;59479;51.902;8.212;2023-04-24T09:36:47;4.60;;;2.50;;
71629;SDS011;59479;51.902;8.212;2023-04-24T09:39:14;3.58;;;2.13;;
71629;SDS011;59479;51.902;8.212;2023-04-24T09:41:47;5.60;;;2.17;;
71629;SDS011;59479;51.902;8.212;2023-04-24T09:44:24;3.22;;;1.60;;
71629;SDS011;59479;51.902;8.212;2023-04-24T09:46:52;3.88;;;1.98;;
71629;SDS011;59479;51.902;8.212;2023-04-24T09:49:25;4.55;;;1.80;;
71629;SDS011;59479;51.902;8.212;2023-04-24T09:52:04;3.35;;;1.67;;
71629;SDS011;59479;51.902;8.212;2023-04-24T09:54:35;3.67;;;1.90;;
71629;SDS011;59479;51.902;8.212;2023-04-24T09:57:01;3.50;;;1.88;;
71629;SDS011;59479;51.902;8.212;2023-04-24T09:59:27;3.20;;;1.50;;
71629;SDS011;59479;51.902;8.212;2023-04-24T10:01:52;3.10;;;1.67;;
71629;SDS011;59479;51.902;8.212;2023-04-24T10:04:18;3.13;;;1.55;;
71629;SDS011;59479;51.902;8.212;2023-04-24T10:06:46;4.33;;;1.43;;
71629;SDS011;59479;51.902;8.212;2023-04-24T10:09:12;3.60;;;1.45;;
71629;SDS011;59479;51.902;8.212;2023-04-24T10:11:42;4.10;;;1.63;;
71629;SDS011;59479;51.902;8.212;2023-04-24T10:14:13;3.10;;;1.42;;
71629;SDS011;59479;51.902;8.212;2023-04-24T10:16:40;3.22;;;1.80;;
71629;SDS011;59479;51.902;8.212;2023-04-24T10:19:06;3.13;;;1.40;;
71629;SDS011;59479;51.902;8.212;2023-04-24T10:21:32;3.30;;;1.58;;
71629;SDS011;59479;51.902;8.212;2023-04-24T10:23:59;3.30;;;1.70;;
71629;SDS011;59479;51.902;8.212;2023-04-24T10:26:28;3.30;;;1.77;;
71629;SDS011;59479;51.902;8.212;2023-04-24T10:28:54;3.83;;;2.40;;
71629;SDS011;59479;51.902;8.212;2023-04-24T10:31:23;3.67;;;1.90;;
71629;SDS011;59479;51.902;8.212;2023-04-24T10:33:55;3.83;;;1.90;;
71629;SDS011;59479;51.902;8.212;2023-04-24T10:36:22;3.53;;;1.70;;
71629;SDS011;59479;51.902;8.212;2023-04-24T10:38:51;3.47;;;2.10;;
71629;SDS011;59479;51.902;8.212;2023-04-24T10:41:17;3.63;;;2.00;;
71629;SDS011;59479;51.902;8.212;2023-04-24T10:43:48;3.38;;;2.00;;
71629;SDS011;59479;51.902;8.212;2023-04-24T10:46:29;3.60;;;1.98;;
71629;SDS011;59479;51.902;8.212;2023-04-24T10:48:55;3.80;;;1.88;;
71629;SDS011;59479;51.902;8.212;2023-04-24T10:51:22;4.00;;;2.07;;
71629;SDS011;59479;51.902;8.212;2023-04-24T10:53:49;3.97;;;2.58;;
71629;SDS011;59479;51.902;8.212;2023-04-24T10:56:15;3.47;;;2.10;;
71629;SDS011;59479;51.902;8.212;2023-04-24T10:58:43;4.15;;;2.50;;
71629;SDS011;59479;51.902;8.212;2023-04-24T11:01:22;4.10;;;2.50;;
71629;SDS011;59479;51.902;8.212;2023-04-24T11:03:55;4.40;;;2.83;;
71629;SDS011;59479;51.902;8.212;2023-04-24T11:06:35;5.93;;;2.40;;
71629;SDS011;59479;51.902;8.212;2023-04-24T11:09:10;3.83;;;2.13;;
71629;SDS011;59479;51.902;8.212;2023-04-24T11:11:44;4.43;;;2.40;;
71629;SDS011;59479;51.902;8.212;2023-04-24T11:14:13;4.93;;;2.50;;
71629;SDS011;59479;51.902;8.212;2023-04-24T11:16:51;6.03;;;2.37;;
71629;SDS011;59479;51.902;8.212;2023-04-24T11:19:26;4.80;;;2.65;;
71629;SDS011;59479;51.902;8.212;2023-04-24T11:24:38;5.72;;;2.50;;
71629;SDS011;59479;51.902;8.212;2023-04-24T11:32:14;8.43;;;2.97;;
71629;SDS011;59479;51.902;8.212;2023-04-24T11:34:39;8.82;;;2.67;;
71629;SDS011;59479;51.902;8.212;2023-04-24T11:37:05;6.95;;;2.67;;
71629;SDS011;59479;51.902;8.212;2023-04-24T11:39:36;5.53;;;2.33;;
71629;SDS011;59479;51.902;8.212;2023-04-24T11:42:02;5.13;;;2.00;;
71629;SDS011;59479;51.902;8.212;2023-04-24T11:44:28;5.85;;;2.75;;
71629;SDS011;59479;51.902;8.212;2023-04-24T11:46:55;4.33;;;2.70;;
71629;SDS011;59479;51.902;8.212;2023-04-24T11:49:21;4.78;;;2.30;;
71629;SDS011;59479;51.902;8.212;2023-04-24T11:51:46;5.53;;;2.57;;
71629;SDS011;59479;51.902;8.212;2023-04-24T11:54:11;4.33;;;2.47;;
71629;SDS011;59479;51.902;8.212;2023-04-24T11:56:37;4.70;;;2.53;;
71629;SDS011;59479;51.902;8.212;2023-04-24T11:59:03;5.37;;;2.70;;
71629;SDS011;59479;51.902;8.212;2023-04-24T12:01:29;4.60;;;2.70;;
71629;SDS011;59479;51.902;8.212;2023-04-24T12:03:59;4.40;;;3.10;;
71629;SDS011;59479;51.902;8.212;2023-04-24T12:06:25;5.22;;;2.60;;
71629;SDS011;59479;51.902;8.212;2023-04-24T12:08:50;6.17;;;3.00;;
71629;SDS011;59479;51.902;8.212;2023-04-24T12:11:17;6.43;;;3.00;;
71629;SDS011;59479;51.902;8.212;2023-04-24T12:13:45;5.07;;;2.88;;
71629;SDS011;59479;51.902;8.212;2023-04-24T12:16:10;6.83;;;3.10;;
71629;SDS011;59479;51.902;8.212;2023-04-24T12:18:41;5.77;;;3.20;;
71629;SDS011;59479;51.902;8.212;2023-04-24T12:21:17;5.57;;;3.33;;
71629;SDS011;59479;51.902;8.212;2023-04-24T12:23:46;5.57;;;2.22;;
71629;SDS011;59479;51.902;8.212;2023-04-24T12:26:15;4.83;;;2.53;;
71629;SDS011;59479;51.902;8.212;2023-04-24T12:28:43;7.13;;;3.13;;
71629;SDS011;59479;51.902;8.212;2023-04-24T12:31:10;5.15;;;2.70;;
71629;SDS011;59479;51.902;8.212;2023-04-24T12:33:36;4.57;;;2.87;;
71629;SDS011;59479;51.902;8.212;2023-04-24T12:36:01;5.43;;;3.33;;
71629;SDS011;59479;51.902;8.212;2023-04-24T12:38:27;6.27;;;3.30;;
71629;SDS011;59479;51.902;8.212;2023-04-24T12:41:09;6.15;;;2.40;;
71629;SDS011;59479;51.902;8.212;2023-04-24T12:43:36;7.57;;;3.28;;
71629;SDS011;59479;51.902;8.212;2023-04-24T12:46:02;7.45;;;3.33;;
71629;SDS011;59479;51.902;8.212;2023-04-24T12:48:28;6.03;;;2.70;;
71629;SDS011;59479;51.902;8.212;2023-04-24T12:50:54;7.13;;;3.10;;
71629;SDS011;59479;51.902;8.212;2023-04-24T12:53:20;7.35;;;3.47;;
71629;SDS011;59479;51.902;8.212;2023-04-24T12:55:45;10.10;;;4.27;;
71629;SDS011;59479;51.902;8.212;2023-04-24T12:58:17;7.63;;;3.80;;
71629;SDS011;59479;51.902;8.212;2023-04-24T13:00:42;6.00;;;3.30;;
71629;SDS011;59479;51.902;8.212;2023-04-24T13:03:08;8.07;;;3.60;;
71629;SDS011;59479;51.902;8.212;2023-04-24T13:05:34;7.82;;;3.50;;
71629;SDS011;59479;51.902;8.212;2023-04-24T13:07:59;8.35;;;3.05;;
71629;SDS011;59479;51.902;8.212;2023-04-24T13:10:25;8.50;;;3.53;;
71629;SDS011;59479;51.902;8.212;2023-04-24T13:12:50;6.87;;;3.27;;
71629;SDS011;59479;51.902;8.212;2023-04-24T13:15:16;9.00;;;3.17;;
71629;SDS011;59479;51.902;8.212;2023-04-24T13:17:41;7.47;;;3.00;;
71629;SDS011;59479;51.902;8.212;2023-04-24T13:20:06;6.90;;;3.40;;
71629;SDS011;59479;51.902;8.212;2023-04-24T13:22:32;7.97;;;3.10;;
71629;SDS011;59479;51.902;8.212;2023-04-24T13:24:57;9.30;;;3.40;;
71629;SDS011;59479;51.902;8.212;2023-04-24T13:27:23;11.23;;;3.60;;
71629;SDS011;59479;51.902;8.212;2023-04-24T13:29:48;7.37;;;3.27;;
71629;SDS011;59479;51.902;8.212;2023-04-24T13:32:13;8.77;;;3.70;;
71629;SDS011;59479;51.902;8.212;2023-04-24T13:34:39;8.33;;;3.60;;
71629;SDS011;59479;51.902;8.212;2023-04-24T13:37:05;11.00;;;3.72;;
71629;SDS011;59479;51.902;8.212;2023-04-24T13:39:30;7.17;;;3.27;;
71629;SDS011;59479;51.902;8.212;2023-04-24T13:41:56;6.78;;;3.58;;
71629;SDS011;59479;51.902;8.212;2023-04-24T13:44:22;9.53;;;3.47;;
71629;SDS011;59479;51.902;8.212;2023-04-24T13:46:48;9.15;;;3.60;;
71629;SDS011;59479;51.902;8.212;2023-04-24T13:49:17;9.02;;;3.83;;
71629;SDS011;59479;51.902;8.212;2023-04-24T13:51:43;7.88;;;3.55;;
71629;SDS011;59479;51.902;8.212;2023-04-24T13:54:08;11.73;;;3.43;;
71629;SDS011;59479;51.902;8.212;2023-04-24T13:56:34;13.02;;;3.95;;
71629;SDS011;59479;51.902;8.212;2023-04-24T13:58:59;10.13;;;3.43;;
71629;SDS011;59479;51.902;8.212;2023-04-24T14:01:25;9.03;;;3.13;;
71629;SDS011;59479;51.902;8.212;2023-04-24T14:03:51;7.03;;;3.53;;
71629;SDS011;59479;51.902;8.212;2023-04-24T14:06:20;11.13;;;3.70;;
71629;SDS011;59479;51.902;8.212;2023-04-24T14:08:46;7.55;;;3.50;;
71629;SDS011;59479;51.902;8.212;2023-04-24T14:11:12;8.85;;;3.50;;
71629;SDS011;59479;51.902;8.212;2023-04-24T14:13:38;9.77;;;4.33;;
71629;SDS011;59479;51.902;8.212;2023-04-24T14:16:06;12.10;;;4.60;;
71629;SDS011;59479;51.902;8.212;2023-04-24T14:18:31;7.60;;;3.37;;
71629;SDS011;59479;51.902;8.212;2023-04-24T14:20:56;7.43;;;3.70;;
71629;SDS011;59479;51.902;8.212;2023-04-24T14:23:22;6.10;;;3.40;;
71629;SDS011;59479;51.902;8.212;2023-04-24T14:25:47;7.57;;;3.40;;
71629;SDS011;59479;51.902;8.212;2023-04-24T14:28:16;6.80;;;3.22;;
71629;SDS011;59479;51.902;8.212;2023-04-24T14:30:41;8.27;;;3.50;;
71629;SDS011;59479;51.902;8.212;2023-04-24T14:33:07;10.23;;;3.53;;
71629;SDS011;59479;51.902;8.212;2023-04-24T14:35:32;6.80;;;2.80;;
71629;SDS011;59479;51.902;8.212;2023-04-24T14:38:00;5.03;;;2.60;;
71629;SDS011;59479;51.902;8.212;2023-04-24T14:40:25;5.78;;;3.00;;
71629;SDS011;59479;51.902;8.212;2023-04-24T14:42:50;6.95;;;3.47;;
71629;SDS011;59479;51.902;8.212;2023-04-24T14:45:16;10.37;;;2.97;;
71629;SDS011;59479;51.902;8.212;2023-04-24T14:47:42;6.07;;;2.95;;